createdAt,value
2019-04-20T00:04:30.991Z,8.50
2019-04-20T00:09:34.806Z,8.40
2019-04-20T00:14:37.172Z,8.46
2019-04-20T00:19:44.038Z,8.39
2019-04-20T00:24:45.442Z,8.18
2019-04-20T00:30:04.444Z,8.08
2019-04-20T00:34:53.864Z,8.01
2019-04-20T00:39:57.810Z,7.69
2019-04-20T00:45:08.404Z,7.70
2019-04-20T00:50:25.609Z,7.65
2019-04-20T00:55:10.446Z,7.77
2019-04-20T01:00:31.579Z,7.83
2019-04-20T01:05:58.440Z,7.69
2019-04-20T01:10:47.195Z,7.58
2019-04-20T01:15:55.377Z,7.52
2019-04-20T01:20:51.967Z,7.54
2019-04-20T01:26:01.257Z,7.38
2019-04-20T01:31:09.797Z,7.38
2019-04-20T01:36:19.477Z,7.45
2019-04-20T01:41:07.468Z,7.37
2019-04-20T01:46:15.619Z,7.40
2019-04-20T01:51:21.278Z,7.33
2019-04-20T01:56:31.609Z,7.37
2019-04-20T02:01:43.914Z,7.32
2019-04-20T02:06:52.053Z,7.36
2019-04-20T02:11:53.392Z,7.29
2019-04-20T02:17:05.397Z,7.27
2019-04-20T02:22:09.926Z,7.32
2019-04-20T02:27:02.516Z,7.11
2019-04-20T02:32:26.481Z,6.94
2019-04-20T02:38:10.482Z,6.98
2019-04-20T02:43:09.477Z,7.01
2019-04-20T02:53:30.320Z,6.70
2019-04-20T02:58:20.532Z,6.70
2019-04-20T03:03:03.307Z,6.82
2019-04-20T03:08:16.467Z,6.92
2019-04-20T03:13:18.336Z,6.33
2019-04-20T03:18:19.506Z,5.60
2019-04-20T03:23:31.206Z,5.42
2019-04-20T03:28:46.559Z,5.37
2019-04-20T03:34:15.274Z,5.54
2019-04-20T03:38:58.787Z,5.71
2019-04-20T03:43:41.726Z,5.72
2019-04-20T03:48:59.918Z,5.96
2019-04-20T03:54:14.771Z,6.23
2019-04-20T03:59:20.816Z,6.13
2019-04-20T04:04:34.456Z,6.18
2019-04-20T04:09:25.888Z,6.24
2019-04-20T04:14:19.806Z,6.27
2019-04-20T04:19:28.482Z,6.34
2019-04-20T04:38:11.275Z,7.23
2019-04-20T04:43:10.155Z,6.81
2019-04-20T04:47:55.629Z,6.75
2019-04-20T04:53:06.424Z,6.60
2019-04-20T04:58:02.402Z,6.86
2019-04-20T05:03:23.345Z,6.74
2019-04-20T05:08:21.283Z,6.55
2019-04-20T05:13:15.747Z,6.38
2019-04-20T05:18:41.243Z,6.49
2019-04-20T05:23:41.424Z,6.74
2019-04-20T05:28:45.776Z,6.65
2019-04-20T05:34:01.740Z,6.56
2019-04-20T05:39:11.703Z,6.78
2019-04-20T05:44:07.675Z,7.37
2019-04-20T05:49:17.692Z,7.87
2019-04-20T05:54:23.584Z,8.76
2019-04-20T05:59:23.426Z,9.33
2019-04-20T06:04:41.270Z,9.89
2019-04-20T06:09:34.109Z,10.10
2019-04-20T06:14:33.108Z,10.02
2019-04-20T06:19:39.258Z,9.92
2019-04-20T06:25:19.580Z,10.15
2019-04-20T06:30:00.725Z,10.50
2019-04-20T06:35:28.006Z,11.03
2019-04-20T06:40:37.134Z,11.11
2019-04-20T06:45:28.274Z,11.74
2019-04-20T06:50:24.525Z,12.31
2019-04-20T06:55:40.275Z,12.61
2019-04-20T07:00:38.369Z,12.60
2019-04-20T07:05:43.695Z,12.43
2019-04-20T07:11:02.281Z,12.31
2019-04-20T07:16:21.498Z,12.40
2019-04-20T07:22:14.950Z,12.42
2019-04-20T07:26:55.927Z,12.75
2019-04-20T07:38:11.536Z,13.35
2019-04-20T07:42:57.705Z,12.94
2019-04-20T07:48:07.494Z,13.33
2019-04-20T07:53:18.535Z,13.43
2019-04-20T07:58:19.425Z,13.89
2019-04-20T08:03:39.696Z,14.64
2019-04-20T08:08:32.842Z,14.48
2019-04-20T08:13:45.680Z,14.88
2019-04-20T08:18:51.418Z,14.36
2019-04-20T08:23:51.827Z,14.42
2019-04-20T08:28:52.889Z,13.59
2019-04-20T08:34:18.527Z,13.19
2019-04-20T08:44:51.524Z,13.12
2019-04-20T08:49:41.346Z,13.66
2019-04-20T08:54:35.536Z,13.04
2019-04-20T08:59:25.407Z,13.38
2019-04-20T09:04:45.142Z,12.94
2019-04-20T09:10:12.250Z,13.36
2019-04-20T09:14:53.503Z,12.47
2019-04-20T09:20:07.165Z,12.47
2019-04-20T09:25:48.737Z,12.64
2019-04-20T09:30:27.881Z,12.99
2019-04-20T09:35:37.298Z,13.06
2019-04-20T09:40:50.767Z,13.50
2019-04-20T09:45:40.991Z,13.60
2019-04-20T09:51:00.842Z,13.78
2019-04-20T09:56:04.138Z,12.89
2019-04-20T10:01:03.253Z,12.63
2019-04-20T10:05:53.653Z,12.57
2019-04-20T10:22:27.211Z,13.72
2019-04-20T10:27:59.498Z,13.96
2019-04-20T10:33:02.018Z,13.86
2019-04-20T10:38:11.462Z,14.20
2019-04-20T10:43:14.296Z,14.31
2019-04-20T10:48:19.314Z,14.11
2019-04-20T10:53:21.907Z,14.08
2019-04-20T10:58:25.301Z,13.79
2019-04-20T11:03:28.909Z,14.32
2019-04-20T11:08:32.902Z,13.73
2019-04-20T11:13:37.529Z,13.84
2019-04-20T11:18:40.075Z,13.63
2019-04-20T11:23:42.580Z,13.20
2019-04-20T11:28:55.903Z,12.30
2019-04-20T11:33:58.386Z,12.33
2019-04-20T11:39:00.800Z,12.42
2019-04-20T11:44:05.586Z,12.36
2019-04-20T11:49:09.798Z,13.06
2019-04-20T11:54:14.594Z,13.03
2019-04-20T11:59:17.196Z,13.02
2019-04-20T12:04:44.204Z,13.04
2019-04-20T12:09:43.863Z,13.13
2019-04-20T12:14:52.597Z,13.27
2019-04-20T12:19:55.540Z,13.09
2019-04-20T12:24:58.260Z,13.20
2019-04-20T12:30:01.894Z,12.86
2019-04-20T12:35:09.765Z,12.67
2019-04-20T12:40:14.163Z,12.69
2019-04-20T12:45:19.459Z,12.63
2019-04-20T12:50:23.410Z,12.67
2019-04-20T12:55:26.450Z,12.88
2019-04-20T13:00:43.781Z,12.76
2019-04-20T13:05:47.728Z,12.56
2019-04-20T13:10:58.371Z,12.61
2019-04-20T13:16:14.735Z,12.29
2019-04-20T13:21:16.977Z,12.16
2019-04-20T13:26:22.547Z,12.20
2019-04-20T13:31:26.097Z,12.39
2019-04-20T13:36:30.277Z,12.32
2019-04-20T13:41:33.735Z,12.37
2019-04-20T13:46:36.848Z,12.54
2019-04-20T13:51:40.967Z,12.61
2019-04-20T13:56:45.853Z,12.87
2019-04-20T14:01:52.977Z,12.66
2019-04-20T14:06:55.401Z,12.58
2019-04-20T14:12:12.718Z,12.43
2019-04-20T14:17:03.341Z,12.59
2019-04-20T14:22:06.131Z,12.56
2019-04-20T14:27:08.852Z,12.52
2019-04-20T14:32:12.054Z,12.39
2019-04-20T14:37:15.062Z,12.13
2019-04-20T14:42:26.928Z,12.18
2019-04-20T14:47:21.808Z,12.16
2019-04-20T14:52:25.781Z,12.05
2019-04-20T14:57:29.660Z,12.19
2019-04-20T15:02:32.417Z,12.29
2019-04-20T15:07:34.631Z,12.12
2019-04-20T15:12:47.366Z,11.62
2019-04-20T15:17:43.767Z,11.41
2019-04-20T15:22:47.978Z,11.13
2019-04-20T15:27:50.292Z,11.29
2019-04-20T15:32:52.635Z,11.44
2019-04-20T15:37:55.325Z,11.63
2019-04-20T15:43:05.966Z,11.73
2019-04-20T15:48:02.125Z,11.89
2019-04-20T15:53:05.865Z,11.76
2019-04-20T15:58:08.555Z,11.67
2019-04-20T16:03:12.858Z,11.66
2019-04-20T16:08:23.819Z,11.36
2019-04-20T16:13:35.072Z,11.09
2019-04-20T16:18:30.893Z,11.00
2019-04-20T16:23:35.107Z,11.01
2019-04-20T16:28:39.471Z,10.84
2019-04-20T16:33:44.212Z,10.83
2019-04-20T16:38:47.725Z,10.72
2019-04-20T16:43:51.515Z,10.67
2019-04-20T16:48:54.947Z,10.78
2019-04-20T16:53:57.845Z,10.68
2019-04-20T16:59:05.841Z,10.44
2019-04-20T17:04:10.833Z,10.40
2019-04-20T17:09:12.167Z,10.14
2019-04-20T17:14:14.883Z,10.06
2019-04-20T17:19:17.643Z,9.70
2019-04-20T17:24:21.612Z,9.73
2019-04-20T17:29:26.239Z,9.80
2019-04-20T17:34:43.804Z,9.70
2019-04-20T17:39:47.873Z,9.58
2019-04-20T17:44:50.214Z,9.60
2019-04-20T17:50:02.180Z,9.63
2019-04-20T17:54:49.489Z,9.65
2019-04-20T18:00:05.337Z,9.56
2019-04-20T18:05:46.590Z,9.40
2019-04-20T18:10:35.451Z,9.40
2019-04-20T18:15:40.712Z,8.86
2019-04-20T18:20:45.620Z,8.64
2019-04-20T18:26:17.160Z,8.63
2019-04-20T18:31:08.970Z,8.43
2019-04-20T18:36:13.390Z,8.39
2019-04-20T18:41:31.785Z,8.01
2019-04-20T18:46:39.295Z,7.58
2019-04-20T18:51:25.981Z,7.33
2019-04-20T18:56:33.192Z,7.23
2019-04-20T19:01:34.842Z,7.22
2019-04-20T19:06:38.094Z,7.37
2019-04-20T19:11:49.559Z,7.56
2019-04-20T19:17:04.240Z,7.36
2019-04-20T19:21:56.265Z,7.13
2019-04-20T19:27:03.515Z,6.75
2019-04-20T19:32:20.594Z,6.81
2019-04-20T19:37:15.805Z,6.55
2019-04-20T19:42:31.226Z,6.39
2019-04-20T19:47:36.937Z,6.66
2019-04-20T19:52:53.124Z,6.78
2019-04-20T19:57:45.157Z,7.04
2019-04-20T20:02:31.945Z,6.78
2019-04-20T20:07:38.730Z,6.63
2019-04-20T20:12:41.237Z,6.60
2019-04-20T20:18:01.985Z,6.58
2019-04-20T20:22:51.907Z,6.35
2019-04-20T20:27:57.450Z,6.17
2019-04-20T20:33:13.962Z,6.28
2019-04-20T20:38:13.373Z,6.30
2019-04-20T20:43:17.327Z,5.93
2019-04-20T20:48:24.414Z,5.75
2019-04-20T20:53:21.909Z,5.82
2019-04-20T20:58:32.517Z,5.89
2019-04-20T21:03:30.171Z,5.68
2019-04-20T21:08:29.322Z,5.80
2019-04-20T21:13:35.533Z,5.67
2019-04-20T21:18:50.337Z,5.46
2019-04-20T21:23:48.086Z,5.65
2019-04-20T21:28:45.761Z,5.55
2019-04-20T21:33:49.073Z,5.59
2019-04-20T21:38:51.874Z,5.23
2019-04-20T21:43:54.143Z,5.20
2019-04-20T21:49:09.709Z,4.98
2019-04-20T21:54:02.055Z,5.00
2019-04-20T21:59:15.352Z,5.14
2019-04-20T22:04:10.366Z,4.96
2019-04-20T22:09:14.785Z,4.70
2019-04-20T22:14:22.898Z,4.80
2019-04-20T22:19:35.915Z,4.73
2019-04-20T22:24:41.962Z,4.54
2019-04-20T22:29:32.361Z,4.43
2019-04-20T22:34:35.263Z,4.25
2019-04-20T22:39:44.330Z,4.38
2019-04-20T22:44:47.989Z,4.21
2019-04-20T22:50:07.846Z,3.97
2019-04-20T22:55:16.092Z,4.04
2019-04-20T23:00:03.498Z,4.06
2019-04-20T23:05:02.879Z,4.05
2019-04-20T23:10:08.645Z,4.14
2019-04-20T23:15:12.153Z,4.01
2019-04-20T23:20:24.044Z,3.56
2019-04-20T23:25:18.960Z,3.35
2019-04-20T23:30:27.116Z,3.26
2019-04-20T23:35:27.051Z,3.31
2019-04-20T23:40:29.960Z,3.19
2019-04-20T23:45:39.442Z,3.35
2019-04-20T23:50:54.197Z,3.53
2019-04-20T23:55:43.645Z,3.42
